Time,TemperatureF,DewpointF,PressureIn,WindDirection,WindDirectionDegrees,WindSpeedMPH,WindSpeedGustMPH,Humidity,HourlyPrecipIn,Conditions,Clouds,dailyrainin,SoftwareType,DateUTC
2013-04-10 00:01:00,49.0,34.0,29.87,West,279,0.0,1.0,55,0.00,,,0.12,,2013-04-10 07:01:00,
2013-04-10 00:11:00,49.0,34.0,29.87,West,279,0.0,1.0,55,0.00,,,0.12,,2013-04-10 07:11:00,
2013-04-10 00:22:00,49.0,32.0,29.87,West,280,0.0,0.0,52,0.00,,,0.09,,2013-04-10 07:22:00,
2013-04-10 00:32:00,49.0,33.0,29.87,West,280,0.0,1.0,53,0.00,,,0.07,,2013-04-10 07:32:00,
2013-04-10 00:42:00,49.0,33.0,29.87,West,280,0.0,1.0,53,0.00,,,0.07,,2013-04-10 07:42:00,
2013-04-10 00:52:00,49.0,31.0,29.87,ENE,68,1.0,4.0,50,0.00,,,0.06,,2013-04-10 07:52:00,
2013-04-10 01:01:00,49.0,32.0,29.87,ENE,68,0.0,2.0,52,0.00,,,0.06,,2013-04-10 08:01:00,
2013-04-10 01:11:00,49.0,32.0,29.87,ENE,68,0.0,2.0,52,0.00,,,0.06,,2013-04-10 08:11:00,
2013-04-10 01:21:00,49.0,30.0,29.88,ENE,72,0.0,2.0,48,0.00,,,0.02,,2013-04-10 08:21:00,
2013-04-10 01:31:00,49.0,32.0,29.88,ENE,73,0.0,2.0,51,0.00,,,0.00,,2013-04-10 08:31:00,
2013-04-10 01:42:00,49.0,32.0,29.88,ENE,73,0.0,2.0,51,0.00,,,0.00,,2013-04-10 08:42:00,
2013-04-10 01:52:00,48.0,32.0,29.88,ENE,73,0.0,2.0,54,0.00,,,0.00,,2013-04-10 08:52:00,
2013-04-10 02:01:00,48.0,32.0,29.88,ENE,73,0.0,0.0,53,0.00,,,0.00,,2013-04-10 09:01:00,
2013-04-10 02:12:00,47.0,32.0,29.88,ENE,74,0.0,2.0,56,0.00,,,0.00,,2013-04-10 09:12:00,
2013-04-10 02:22:00,47.0,32.0,29.88,ENE,74,0.0,2.0,56,0.00,,,0.00,,2013-04-10 09:22:00,
2013-04-10 02:32:00,46.0,32.0,29.88,ENE,74,0.0,1.0,58,0.00,,,0.00,,2013-04-10 09:32:00,
2013-04-10 02:42:00,46.0,32.0,29.88,ENE,74,0.0,2.0,57,0.00,,,0.00,,2013-04-10 09:42:00,
2013-04-10 02:52:00,46.0,32.0,29.88,ENE,74,0.0,2.0,57,0.00,,,0.00,,2013-04-10 09:52:00,
2013-04-10 03:02:00,45.0,32.0,29.88,ENE,73,0.0,1.0,59,0.00,,,0.00,,2013-04-10 10:02:00,
2013-04-10 03:12:00,45.0,32.0,29.88,ENE,73,0.0,0.0,59,0.00,,,0.00,,2013-04-10 10:12:00,
2013-04-10 03:23:00,45.0,32.0,29.88,ENE,73,0.0,0.0,59,0.00,,,0.00,,2013-04-10 10:23:00,
2013-04-10 03:32:00,44.0,32.0,29.88,ENE,73,0.0,1.0,63,0.00,,,0.00,,2013-04-10 10:32:00,
2013-04-10 03:42:00,44.0,32.0,29.88,ENE,73,0.0,1.0,63,0.00,,,0.00,,2013-04-10 10:42:00,
2013-04-10 03:52:00,44.0,32.0,29.88,ENE,73,0.0,1.0,62,0.00,,,0.00,,2013-04-10 10:52:00,
2013-04-10 04:02:00,43.0,32.0,29.88,ENE,73,0.0,1.0,65,0.00,,,0.00,,2013-04-10 11:02:00,
2013-04-10 04:12:00,43.0,32.0,29.88,ENE,73,0.0,1.0,65,0.00,,,0.00,,2013-04-10 11:12:00,
2013-04-10 04:22:00,43.0,33.0,29.88,ENE,73,0.0,2.0,67,0.00,,,0.00,,2013-04-10 11:22:00,
2013-04-10 04:31:00,43.0,34.0,29.89,ENE,73,0.0,0.0,69,0.00,,,0.00,,2013-04-10 11:31:00,
2013-04-10 04:42:00,43.0,34.0,29.89,ENE,73,0.0,0.0,69,0.00,,,0.00,,2013-04-10 11:42:00,
2013-04-10 04:52:00,42.0,33.0,29.89,ENE,73,0.0,0.0,71,0.00,,,0.00,,2013-04-10 11:52:00,
2013-04-10 05:02:00,41.0,33.0,29.90,ENE,73,0.0,0.0,72,0.00,,,0.00,,2013-04-10 12:02:00,
2013-04-10 05:12:00,41.0,33.0,29.90,ENE,73,0.0,0.0,72,0.00,,,0.00,,2013-04-10 12:12:00,
2013-04-10 05:22:00,40.0,32.0,29.91,ENE,73,0.0,1.0,73,0.00,,,0.00,,2013-04-10 12:22:00,
2013-04-10 05:32:00,40.0,33.0,29.91,ENE,73,0.0,1.0,75,0.00,,,0.00,,2013-04-10 12:32:00,
2013-04-10 05:42:00,40.0,33.0,29.91,ENE,73,0.0,1.0,75,0.00,,,0.00,,2013-04-10 12:42:00,
2013-04-10 05:52:00,41.0,33.0,29.92,ENE,73,0.0,1.0,73,0.00,,,0.00,,2013-04-10 12:52:00,
2013-04-10 06:01:00,41.0,33.0,29.92,ENE,73,0.0,1.0,73,0.00,,,0.00,,2013-04-10 13:01:00,
2013-04-10 06:11:00,41.0,33.0,29.92,ENE,73,0.0,1.0,73,0.00,,,0.00,,2013-04-10 13:11:00,
2013-04-10 06:22:00,40.0,32.0,29.93,ENE,73,0.0,0.0,74,0.00,,,0.00,,2013-04-10 13:22:00,
2013-04-10 06:32:00,40.0,32.0,29.93,ENE,73,0.0,0.0,73,0.00,,,0.00,,2013-04-10 13:32:00,
2013-04-10 06:42:00,40.0,32.0,29.93,ENE,73,0.0,0.0,73,0.00,,,0.00,,2013-04-10 13:42:00,
2013-04-10 06:53:00,41.0,33.0,29.94,ENE,73,0.0,0.0,73,0.00,,,0.00,,2013-04-10 13:53:00,
2013-04-10 07:01:00,44.0,34.0,29.94,ENE,73,0.0,0.0,68,0.00,,,0.00,,2013-04-10 14:01:00,
2013-04-10 07:11:00,44.0,34.0,29.94,ENE,73,0.0,0.0,68,0.00,,,0.00,,2013-04-10 14:11:00,
2013-04-10 07:22:00,48.0,35.0,29.94,ENE,73,0.0,1.0,60,0.00,,,0.00,,2013-04-10 14:22:00,
2013-04-10 07:32:00,49.0,34.0,29.94,ENE,74,0.0,2.0,55,0.00,,,0.00,,2013-04-10 14:32:00,
2013-04-10 07:42:00,51.0,33.0,29.94,ENE,74,0.0,1.0,49,0.00,,,0.00,,2013-04-10 14:42:00,
2013-04-10 07:52:00,51.0,33.0,29.94,ENE,74,0.0,1.0,49,0.00,,,0.00,,2013-04-10 14:52:00,
2013-04-10 08:02:00,52.0,32.0,29.94,East,81,0.0,2.0,46,0.00,,,0.00,,2013-04-10 15:02:00,
2013-04-10 08:11:00,52.0,32.0,29.94,East,81,0.0,2.0,46,0.00,,,0.00,,2013-04-10 15:11:00,
2013-04-10 08:21:00,54.0,31.0,29.95,East,81,0.0,1.0,42,0.00,,,0.00,,2013-04-10 15:21:00,
2013-04-10 08:32:00,56.0,31.0,29.95,East,95,0.0,4.0,38,0.00,,,0.00,,2013-04-10 15:32:00,
2013-04-10 08:42:00,56.0,31.0,29.95,East,95,0.0,4.0,38,0.00,,,0.00,,2013-04-10 15:42:00,
2013-04-10 08:52:00,57.0,31.0,29.95,WSW,238,2.0,5.0,37,0.00,,,0.00,,2013-04-10 15:52:00,
2013-04-10 09:02:00,57.0,30.0,29.96,South,181,2.0,5.0,36,0.00,,,0.00,,2013-04-10 16:02:00,
2013-04-10 09:12:00,57.0,30.0,29.96,South,181,2.0,5.0,36,0.00,,,0.00,,2013-04-10 16:12:00,
2013-04-10 09:22:00,58.0,31.0,29.96,West,276,0.0,5.0,35,0.00,,,0.00,,2013-04-10 16:22:00,
2013-04-10 09:32:00,58.0,30.0,29.96,South,191,0.0,5.0,34,0.00,,,0.00,,2013-04-10 16:32:00,
2013-04-10 09:42:00,58.0,30.0,29.96,South,191,0.0,5.0,34,0.00,,,0.00,,2013-04-10 16:42:00,
2013-04-10 09:52:00,60.0,29.0,29.96,SW,222,2.0,6.0,31,0.00,,,0.00,,2013-04-10 16:52:00,
2013-04-10 10:02:00,59.0,28.0,29.96,NW,309,2.0,6.0,30,0.00,,,0.00,,2013-04-10 17:02:00,
2013-04-10 10:12:00,60.0,27.0,29.97,SSW,197,2.0,7.0,28,0.00,,,0.00,,2013-04-10 17:12:00,
2013-04-10 10:22:00,60.0,27.0,29.97,SSW,197,2.0,7.0,28,0.00,,,0.00,,2013-04-10 17:22:00,
2013-04-10 10:32:00,62.0,29.0,29.97,SW,230,4.0,9.0,28,0.00,,,0.00,,2013-04-10 17:32:00,
2013-04-10 10:42:00,62.0,29.0,29.97,SW,230,4.0,9.0,28,0.00,,,0.00,,2013-04-10 17:42:00,
2013-04-10 10:52:00,62.0,29.0,29.97,WNW,283,2.0,9.0,29,0.00,,,0.00,,2013-04-10 17:52:00,
2013-04-10 11:02:00,63.0,29.0,29.97,SSW,198,5.0,14.0,27,0.00,,,0.00,,2013-04-10 18:02:00,
2013-04-10 11:11:00,63.0,29.0,29.97,SSW,198,5.0,14.0,27,0.00,,,0.00,,2013-04-10 18:11:00,
2013-04-10 11:22:00,63.0,29.0,29.96,SW,234,4.0,14.0,28,0.00,,,0.00,,2013-04-10 18:22:00,
2013-04-10 11:32:00,65.0,30.0,29.96,SW,225,6.0,12.0,27,0.00,,,0.00,,2013-04-10 18:32:00,
2013-04-10 11:42:00,65.0,30.0,29.96,SW,225,6.0,12.0,27,0.00,,,0.00,,2013-04-10 18:42:00,
2013-04-10 11:52:00,64.0,28.0,29.96,WNW,289,7.0,13.0,26,0.00,,,0.00,,2013-04-10 18:52:00,
2013-04-10 12:02:00,65.0,28.0,29.95,West,272,7.0,16.0,25,0.00,,,0.00,,2013-04-10 19:02:00,
2013-04-10 12:12:00,65.0,28.0,29.95,West,272,7.0,16.0,25,0.00,,,0.00,,2013-04-10 19:12:00,
2013-04-10 12:22:00,66.0,29.0,29.95,SW,222,7.0,15.0,25,0.00,,,0.00,,2013-04-10 19:22:00,
2013-04-10 12:32:00,65.0,30.0,29.94,West,265,8.0,15.0,27,0.00,,,0.00,,2013-04-10 19:32:00,
2013-04-10 12:41:00,65.0,30.0,29.94,West,265,8.0,15.0,27,0.00,,,0.00,,2013-04-10 19:41:00,
2013-04-10 12:52:00,65.0,29.0,29.93,SW,228,6.0,16.0,26,0.00,,,0.00,,2013-04-10 19:52:00,
2013-04-10 13:11:00,67.0,30.0,29.92,SW,234,5.0,12.0,25,0.00,,,0.00,,2013-04-10 20:11:00,
2013-04-10 13:22:00,67.0,30.0,29.92,SW,234,5.0,12.0,25,0.00,,,0.00,,2013-04-10 20:22:00,
2013-04-10 13:32:00,67.0,29.0,29.92,SSW,199,7.0,13.0,24,0.00,,,0.00,,2013-04-10 20:32:00,
2013-04-10 13:42:00,67.0,29.0,29.92,SW,224,7.0,14.0,24,0.00,,,0.00,,2013-04-10 20:42:00,
2013-04-10 13:52:00,67.0,29.0,29.92,SW,224,7.0,14.0,24,0.00,,,0.00,,2013-04-10 20:52:00,
2013-04-10 14:01:00,68.0,30.0,29.91,WSW,240,6.0,15.0,24,0.00,,,0.00,,2013-04-10 21:01:00,
2013-04-10 14:12:00,67.0,27.0,29.91,SW,220,9.0,20.0,22,0.00,,,0.00,,2013-04-10 21:12:00,
2013-04-10 14:21:00,67.0,27.0,29.91,SW,220,9.0,20.0,22,0.00,,,0.00,,2013-04-10 21:21:00,
2013-04-10 14:32:00,67.0,26.0,29.90,WNW,303,8.0,20.0,21,0.00,,,0.00,,2013-04-10 21:32:00,
2013-04-10 14:42:00,67.0,26.0,29.90,WNW,303,8.0,20.0,21,0.00,,,0.00,,2013-04-10 21:42:00,
2013-04-10 14:53:00,68.0,27.0,29.90,SW,232,10.0,17.0,21,0.00,,,0.00,,2013-04-10 21:53:00,
2013-04-10 15:02:00,68.0,25.0,29.89,SW,236,10.0,19.0,20,0.00,,,0.00,,2013-04-10 22:02:00,
2013-04-10 15:12:00,68.0,25.0,29.89,WSW,254,8.0,19.0,20,0.00,,,0.00,,2013-04-10 22:12:00,
2013-04-10 15:22:00,68.0,25.0,29.89,WSW,254,8.0,19.0,20,0.00,,,0.00,,2013-04-10 22:22:00,
2013-04-10 15:32:00,67.0,26.0,29.89,West,275,10.0,19.0,21,0.00,,,0.00,,2013-04-10 22:32:00,
2013-04-10 15:42:00,67.0,26.0,29.89,West,275,10.0,19.0,21,0.00,,,0.00,,2013-04-10 22:42:00,
2013-04-10 15:52:00,68.0,27.0,29.88,SW,234,8.0,16.0,21,0.00,,,0.00,,2013-04-10 22:52:00,
2013-04-10 16:02:00,68.0,27.0,29.88,West,265,8.0,17.0,21,0.00,,,0.00,,2013-04-10 23:02:00,
2013-04-10 16:12:00,67.0,26.0,29.88,West,265,8.0,18.0,21,0.00,,,0.00,,2013-04-10 23:12:00,
2013-04-10 16:22:00,67.0,26.0,29.88,West,265,8.0,18.0,21,0.00,,,0.00,,2013-04-10 23:22:00,
2013-04-10 16:32:00,67.0,26.0,29.88,West,275,10.0,19.0,21,0.00,,,0.00,,2013-04-10 23:32:00,
2013-04-10 16:42:00,67.0,26.0,29.88,West,275,10.0,19.0,21,0.00,,,0.00,,2013-04-10 23:42:00,
2013-04-10 16:52:00,67.0,26.0,29.88,West,271,9.0,19.0,21,0.00,,,0.00,,2013-04-10 23:52:00,
2013-04-10 17:01:00,67.0,26.0,29.88,NW,313,10.0,18.0,21,0.00,,,0.00,,2013-04-11 00:01:00,
2013-04-10 17:11:00,67.0,26.0,29.88,WSW,253,8.0,16.0,21,0.00,,,0.00,,2013-04-11 00:11:00,
2013-04-10 17:22:00,67.0,26.0,29.88,WSW,253,8.0,16.0,21,0.00,,,0.00,,2013-04-11 00:22:00,
2013-04-10 17:32:00,67.0,26.0,29.88,WSW,257,8.0,17.0,21,0.00,,,0.00,,2013-04-11 00:32:00,
2013-04-10 17:42:00,66.0,25.0,29.88,WSW,245,7.0,17.0,21,0.00,,,0.00,,2013-04-11 00:42:00,
2013-04-10 17:52:00,66.0,25.0,29.88,WSW,245,7.0,17.0,21,0.00,,,0.00,,2013-04-11 00:52:00,
2013-04-10 18:01:00,66.0,25.0,29.88,West,265,7.0,15.0,21,0.00,,,0.00,,2013-04-11 01:01:00,
2013-04-10 18:12:00,66.0,26.0,29.89,West,278,7.0,15.0,22,0.00,,,0.00,,2013-04-11 01:12:00,
2013-04-10 18:21:00,66.0,26.0,29.89,West,278,7.0,15.0,22,0.00,,,0.00,,2013-04-11 01:21:00,
2013-04-10 18:32:00,65.0,26.0,29.89,NNW,343,7.0,15.0,23,0.00,,,0.00,,2013-04-11 01:32:00,
2013-04-10 18:41:00,64.0,27.0,29.89,NW,317,6.0,13.0,25,0.00,,,0.00,,2013-04-11 01:41:00,
2013-04-10 18:52:00,64.0,27.0,29.89,NW,317,6.0,13.0,25,0.00,,,0.00,,2013-04-11 01:52:00,
2013-04-10 19:02:00,63.0,28.0,29.90,NNW,332,6.0,14.0,26,0.00,,,0.00,,2013-04-11 02:02:00,
2013-04-10 19:12:00,62.0,28.0,29.91,NNW,348,3.0,10.0,27,0.00,,,0.00,,2013-04-11 02:12:00,
2013-04-10 19:21:00,62.0,28.0,29.91,NNW,348,3.0,10.0,27,0.00,,,0.00,,2013-04-11 02:21:00,
2013-04-10 19:31:00,62.0,29.0,29.91,NNW,343,5.0,11.0,28,0.00,,,0.00,,2013-04-11 02:31:00,
2013-04-10 19:41:00,62.0,29.0,29.91,NNW,343,5.0,11.0,28,0.00,,,0.00,,2013-04-11 02:41:00,
2013-04-10 19:52:00,62.0,30.0,29.92,NNW,330,7.0,12.0,30,0.00,,,0.00,,2013-04-11 02:52:00,
2013-04-10 20:01:00,61.0,29.0,29.93,NW,313,4.0,12.0,30,0.00,,,0.00,,2013-04-11 03:01:00,
2013-04-10 20:11:00,60.0,29.0,29.94,NNE,24,2.0,5.0,31,0.00,,,0.00,,2013-04-11 03:11:00,
2013-04-10 20:22:00,60.0,29.0,29.94,NNE,24,2.0,5.0,31,0.00,,,0.00,,2013-04-11 03:22:00,
2013-04-10 20:32:00,60.0,30.0,29.94,NE,43,1.0,7.0,32,0.00,,,0.00,,2013-04-11 03:32:00,
2013-04-10 20:42:00,58.0,31.0,29.95,NE,43,0.0,0.0,35,0.00,,,0.00,,2013-04-11 03:42:00,
2013-04-10 20:53:00,58.0,31.0,29.95,NE,43,0.0,0.0,35,0.00,,,0.00,,2013-04-11 03:53:00,
2013-04-10 21:03:00,55.0,31.0,29.96,NE,43,0.0,0.0,40,0.00,,,0.00,,2013-04-11 04:03:00,
2013-04-10 21:12:00,56.0,33.0,29.96,NE,43,0.0,2.0,41,0.00,,,0.00,,2013-04-11 04:12:00,
2013-04-10 21:22:00,56.0,33.0,29.96,NE,43,0.0,2.0,41,0.00,,,0.00,,2013-04-11 04:22:00,
2013-04-10 21:33:00,56.0,31.0,29.97,NW,319,1.0,3.0,39,0.00,,,0.00,,2013-04-11 04:33:00,
2013-04-10 21:42:00,56.0,31.0,29.97,NW,319,1.0,3.0,39,0.00,,,0.00,,2013-04-11 04:42:00,
2013-04-10 21:52:00,57.0,32.0,29.96,WNW,294,2.0,5.0,39,0.00,,,0.00,,2013-04-11 04:52:00,
2013-04-10 22:02:00,55.0,32.0,29.97,WNW,294,0.0,3.0,42,0.00,,,0.00,,2013-04-11 05:02:00,
2013-04-10 22:12:00,54.0,33.0,29.97,WNW,294,0.0,1.0,44,0.00,,,0.00,,2013-04-11 05:12:00,
2013-04-10 22:22:00,54.0,33.0,29.97,WNW,294,0.0,1.0,44,0.00,,,0.00,,2013-04-11 05:22:00,
2013-04-10 22:32:00,53.0,33.0,29.96,WNW,294,0.0,2.0,47,0.00,,,0.00,,2013-04-11 05:32:00,
2013-04-10 22:42:00,53.0,33.0,29.96,WNW,294,0.0,2.0,47,0.00,,,0.00,,2013-04-11 05:42:00,
2013-04-10 22:52:00,52.0,32.0,29.96,NNW,343,0.0,2.0,46,0.00,,,0.00,,2013-04-11 05:52:00,
2013-04-10 23:02:00,52.0,32.0,29.97,NNW,343,0.0,1.0,47,0.00,,,0.00,,2013-04-11 06:02:00,
2013-04-10 23:12:00,52.0,32.0,29.97,NNW,343,0.0,1.0,47,0.00,,,0.00,,2013-04-11 06:12:00,
2013-04-10 23:21:00,53.0,32.0,29.97,SE,141,2.0,6.0,44,0.00,,,0.00,,2013-04-11 06:21:00,
2013-04-10 23:32:00,51.0,31.0,29.97,SE,140,0.0,2.0,47,0.00,,,0.00,,2013-04-11 06:32:00,
2013-04-10 23:41:00,51.0,31.0,29.97,SE,140,0.0,2.0,47,0.00,,,0.00,,2013-04-11 06:41:00,
2013-04-10 23:52:00,53.0,32.0,29.97,East,82,1.0,0.0,44,0.00,,,0.00,,2013-04-11 06:52:00,